EST,Max TemperatureF,Mean TemperatureF,Min TemperatureF,Max Dew PointF,MeanDew PointF,Min DewpointF,Max Humidity, Mean Humidity, Min Humidity, Max Sea Level PressureIn, Mean Sea Level PressureIn, Min Sea Level PressureIn, Max VisibilityMiles, Mean VisibilityMiles, Min VisibilityMiles, Max Wind SpeedMPH, Mean Wind SpeedMPH, Max Gust SpeedMPH,PrecipitationIn, CloudCover, Events, WindDirDegrees
2012-11-1,55,46,36,46,42,37,100,87,61,29.76,29.70,29.66,10,10,10,7,1,,0.00,6,,271
2012-11-2,57,44,32,42,36,32,100,77,48,29.94,29.81,29.75,10,10,7,17,4,25,0.00,4,,302
2012-11-3,53,46,38,38,36,34,91,68,55,30.08,30.03,29.94,10,10,10,18,10,24,0.00,6,,305
2012-11-4,54,44,33,41,37,33,100,80,52,30.10,30.05,30.00,10,10,10,8,2,,0.00,4,,332
2012-11-5,52,42,32,36,33,30,95,73,54,30.18,30.09,30.05,10,10,7,17,6,24,0.00,2,,338
2012-11-6,47,36,25,36,32,25,100,82,57,30.21,30.12,30.00,10,10,5,8,1,,0.00,1,,32
2012-11-7,45,42,38,36,33,29,83,72,56,30.00,29.92,29.89,10,10,10,14,7,18,0.00,7,,352
2012-11-8,57,49,41,34,27,22,73,47,28,30.08,29.98,29.91,10,10,10,20,10,29,0.00,1,,319
2012-11-9,61,47,33,43,38,32,100,75,49,30.23,30.17,30.08,10,10,4,14,5,18,0.00,0,,340
2012-11-10,66,48,30,52,41,31,100,85,50,30.36,30.29,30.21,10,8,4,4,0,,0.00,0,,130
2012-11-11,75,54,32,49,43,33,100,71,37,30.46,30.39,30.35,10,8,2,8,2,16,0.00,0,,171
2012-11-12,73,56,41,63,56,41,100,87,66,30.41,30.28,30.13,10,10,7,9,2,,0.00,3,Rain,190
2012-11-13,51,52,36,64,40,31,100,81,57,30.49,30.36,30.15,10,9,3,17,9,26,0.66,4,Rain,351
2012-11-14,47,38,30,35,32,29,100,82,60,30.55,30.49,30.44,10,10,10,15,4,20,0.00,0,,3
2012-11-15,49,39,29,41,37,29,100,89,72,30.43,30.35,30.30,10,10,1,8,1,,0.00,6,,20
2012-11-16,54,42,31,40,37,31,100,83,53,30.44,30.35,30.29,10,10,10,10,2,,0.00,1,,359
2012-11-17,56,42,29,38,34,29,100,78,44,30.59,30.54,30.44,10,10,10,12,2,16,0.00,0,,35
2012-11-18,55,43,31,45,40,32,100,83,68,30.59,30.55,30.49,10,10,4,10,4,,0.00,3,,31
2012-11-19,55,45,35,46,42,35,100,84,71,30.49,30.36,30.23,10,10,10,13,6,16,0.00,6,,16
2012-11-20,56,44,32,49,42,33,100,92,75,30.22,30.14,30.08,10,8,0,5,0,,0.00,2,Fog,61
2012-11-21,58,44,29,45,35,29,100,86,48,30.22,30.18,30.13,10,7,0,9,1,16,0.00,1,Fog,27
2012-11-22,60,42,24,41,33,25,100,83,41,30.28,30.21,30.15,10,9,7,6,1,,0.00,0,,33
2012-11-23,68,46,25,47,36,25,100,74,43,30.14,29.93,29.76,10,10,10,23,3,36,0.00,1,,235
2012-11-24,47,40,29,34,26,23,81,58,45,30.06,29.97,29.84,10,10,10,20,12,29,0.00,2,,302
2012-11-25,45,34,23,29,26,23,100,81,48,30.08,30.01,29.94,10,10,10,8,2,,0.00,1,,213
2012-11-26,60,42,25,38,32,25,100,74,37,30.20,30.12,29.99,10,10,10,7,2,,0.00,1,,113
2012-11-27,43,40,37,42,40,35,100,93,75,30.26,30.20,30.14,10,10,7,12,4,17,0.00,7,Rain,4
2012-11-28,52,38,23,39,32,24,100,79,44,30.38,30.29,30.24,10,10,7,10,1,,0.00,3,,334
2012-11-29,52,36,20,33,27,20,100,80,43,30.46,30.38,30.32,10,10,10,8,2,,0.00,0,,204
2012-11-30,52,37,22,37,30,22,100,87,54,30.37,30.33,30.30,10,10,10,4,0,,0.00,1,,85